createdAt,value
2022-11-29T00:01:56.144Z,18.30
2022-11-29T00:04:24.520Z,18.30
2022-11-29T00:06:52.849Z,18.37
2022-11-29T00:09:21.462Z,18.53
2022-11-29T00:12:07.496Z,18.67
2022-11-29T00:14:36.117Z,17.80
2022-11-29T00:17:06.485Z,17.57
2022-11-29T00:19:36.889Z,17.73
2022-11-29T00:22:05.832Z,17.97
2022-11-29T00:24:34.634Z,18.27
2022-11-29T00:27:03.592Z,18.07
2022-11-29T00:29:32.170Z,18.23
2022-11-29T00:32:01.168Z,18.80
2022-11-29T00:34:30.966Z,18.60
2022-11-29T00:36:59.728Z,18.77
2022-11-29T00:39:28.398Z,19.13
2022-11-29T00:41:57.170Z,19.73
2022-11-29T00:44:25.771Z,18.70
2022-11-29T00:46:54.136Z,18.97
2022-11-29T00:49:22.541Z,19.27
2022-11-29T00:51:52.291Z,19.07
2022-11-29T00:54:20.591Z,19.40
2022-11-29T00:56:49.215Z,19.53
2022-11-29T00:59:17.570Z,20.27
2022-11-29T01:01:46.391Z,19.80
2022-11-29T01:04:15.091Z,19.97
2022-11-29T01:06:43.506Z,19.23
2022-11-29T01:09:13.323Z,20.80
2022-11-29T01:11:41.739Z,18.60
2022-11-29T01:14:12.371Z,18.83
2022-11-29T01:16:40.756Z,19.00
2022-11-29T01:19:09.514Z,19.57
2022-11-29T01:21:37.881Z,20.27
2022-11-29T01:24:07.050Z,20.30
2022-11-29T01:26:36.987Z,20.33
2022-11-29T01:29:05.341Z,20.70
2022-11-29T01:31:36.511Z,20.33
2022-11-29T01:34:07.803Z,22.00
2022-11-29T01:36:37.048Z,19.47
2022-11-29T01:39:07.792Z,20.93
2022-11-29T01:41:38.833Z,20.90
2022-11-29T01:44:29.221Z,22.03
2022-11-29T01:46:58.928Z,21.47
2022-11-29T01:49:34.630Z,20.73
2022-11-29T01:52:07.710Z,22.23
2022-11-29T01:54:43.510Z,21.77
2022-11-29T01:57:15.460Z,22.17
2022-11-29T01:59:47.536Z,21.30
2022-11-29T02:02:19.468Z,20.53
2022-11-29T02:04:51.120Z,21.50
2022-11-29T02:07:20.944Z,21.47
2022-11-29T02:09:49.231Z,21.47
2022-11-29T02:12:31.145Z,22.33
2022-11-29T02:15:24.631Z,22.57
2022-11-29T02:18:07.869Z,22.70
2022-11-29T02:21:12.919Z,21.63
2022-11-29T02:24:16.208Z,22.03
2022-11-29T02:27:37.282Z,21.53
2022-11-29T02:30:20.735Z,22.50
2022-11-29T02:33:34.363Z,23.77
2022-11-29T02:36:24.734Z,22.83
2022-11-29T02:39:26.345Z,22.60
2022-11-29T02:42:55.797Z,23.77
2022-11-29T02:45:47.691Z,22.80
2022-11-29T02:49:02.259Z,22.77
2022-11-29T02:51:43.921Z,22.67
2022-11-29T02:54:24.961Z,22.30
2022-11-29T02:57:01.196Z,22.43
2022-11-29T02:59:48.058Z,22.20
2022-11-29T03:02:27.750Z,23.10
2022-11-29T03:05:13.952Z,22.07
2022-11-29T03:07:54.396Z,21.77
2022-11-29T03:10:36.144Z,20.63
2022-11-29T03:13:15.359Z,21.70
2022-11-29T03:15:56.465Z,22.57
2022-11-29T03:18:36.122Z,22.30
2022-11-29T03:21:24.606Z,22.03
2022-11-29T03:23:58.644Z,22.27
2022-11-29T03:26:36.553Z,23.37
2022-11-29T03:29:16.281Z,22.53
2022-11-29T03:31:53.188Z,23.37
2022-11-29T03:34:36.971Z,22.00
2022-11-29T03:37:15.791Z,23.60
2022-11-29T03:39:53.075Z,23.50
2022-11-29T03:42:30.471Z,23.80
2022-11-29T03:45:09.890Z,21.87
2022-11-29T03:47:49.885Z,22.23
2022-11-29T03:50:23.335Z,23.47
2022-11-29T03:53:01.072Z,23.47
2022-11-29T03:55:34.856Z,22.00
2022-11-29T03:58:26.298Z,23.33
2022-11-29T04:01:38.553Z,22.90
2022-11-29T04:05:23.032Z,22.20
2022-11-29T04:08:29.084Z,21.40
2022-11-29T04:11:29.642Z,22.43
2022-11-29T04:14:34.556Z,22.83
2022-11-29T04:17:34.094Z,22.03
2022-11-29T04:20:38.815Z,22.90
2022-11-29T04:23:47.707Z,22.33
2022-11-29T04:26:58.048Z,22.20
2022-11-29T04:29:51.040Z,23.80
2022-11-29T04:33:01.725Z,23.50
2022-11-29T04:35:52.670Z,23.83
2022-11-29T04:39:08.415Z,23.23
2022-11-29T04:42:21.268Z,23.37
2022-11-29T04:45:18.143Z,24.00
2022-11-29T04:48:03.037Z,23.37
2022-11-29T04:50:54.516Z,24.47
2022-11-29T04:53:34.923Z,23.77
2022-11-29T04:56:18.951Z,26.17
2022-11-29T04:59:00.236Z,24.87
2022-11-29T05:01:44.570Z,24.97
2022-11-29T05:04:22.788Z,24.97
2022-11-29T05:07:04.352Z,24.40
2022-11-29T05:09:45.541Z,24.63
2022-11-29T05:12:29.089Z,23.97
2022-11-29T05:15:33.740Z,25.70
2022-11-29T05:18:19.373Z,24.67
2022-11-29T05:21:01.401Z,24.80
2022-11-29T05:23:46.897Z,25.37
2022-11-29T05:26:24.514Z,25.27
2022-11-29T05:29:02.949Z,26.90
2022-11-29T05:31:57.755Z,25.83
2022-11-29T05:35:05.335Z,25.77
2022-11-29T05:37:45.445Z,24.77
2022-11-29T05:40:45.653Z,24.73
2022-11-29T05:43:33.647Z,26.27
2022-11-29T05:46:12.732Z,24.27
2022-11-29T05:48:55.370Z,27.53
2022-11-29T05:51:38.442Z,25.57
2022-11-29T05:54:21.112Z,25.17
2022-11-29T05:57:05.048Z,26.07
2022-11-29T05:59:39.444Z,26.63
2022-11-29T06:02:29.250Z,25.87
2022-11-29T06:05:11.690Z,25.37
2022-11-29T06:07:51.877Z,26.13
2022-11-29T06:10:26.380Z,25.27
2022-11-29T06:13:14.671Z,26.00
2022-11-29T06:16:23.675Z,25.90
2022-11-29T06:19:34.031Z,25.80
2022-11-29T06:22:28.951Z,26.87
2022-11-29T06:25:18.237Z,27.27
2022-11-29T06:28:10.851Z,27.20
2022-11-29T06:30:59.546Z,27.13
2022-11-29T06:33:39.817Z,26.93
2022-11-29T06:36:28.029Z,28.00
2022-11-29T06:38:58.385Z,29.07
2022-11-29T06:41:27.660Z,26.93
2022-11-29T06:43:57.111Z,27.20
2022-11-29T06:46:45.105Z,27.67
2022-11-29T06:49:23.543Z,28.13
2022-11-29T06:52:09.405Z,28.23
2022-11-29T06:55:04.455Z,27.17
2022-11-29T06:57:48.366Z,27.20
2022-11-29T07:00:21.674Z,26.80
2022-11-29T07:03:20.885Z,28.70
2022-11-29T07:05:50.360Z,28.37
2022-11-29T07:08:23.097Z,27.87
2022-11-29T07:10:55.740Z,28.70
2022-11-29T07:13:25.304Z,28.27
2022-11-29T07:16:04.655Z,28.93
2022-11-29T07:18:45.614Z,28.97
2022-11-29T07:21:29.364Z,27.93
2022-11-29T07:24:09.853Z,27.83
2022-11-29T07:26:56.486Z,29.27
2022-11-29T07:29:41.992Z,29.53
2022-11-29T07:32:23.511Z,27.63
2022-11-29T07:35:05.267Z,27.50
2022-11-29T07:37:46.326Z,28.33
2022-11-29T07:40:20.197Z,27.20
2022-11-29T07:43:19.470Z,29.10
2022-11-29T07:45:48.527Z,28.50
2022-11-29T07:48:18.758Z,27.60
2022-11-29T07:50:48.514Z,28.30
2022-11-29T07:53:19.667Z,28.03
2022-11-29T07:55:49.547Z,27.73
2022-11-29T07:58:20.570Z,28.23
2022-11-29T08:00:49.004Z,28.10
2022-11-29T08:03:17.330Z,27.63
2022-11-29T08:05:48.110Z,27.27
2022-11-29T08:08:17.356Z,27.70
2022-11-29T08:10:46.516Z,27.93
2022-11-29T08:13:15.453Z,27.77
2022-11-29T08:15:50.379Z,27.60
2022-11-29T08:18:19.373Z,28.63
2022-11-29T08:20:47.689Z,28.40
2022-11-29T08:23:17.052Z,29.33
2022-11-29T08:25:46.077Z,28.03
2022-11-29T08:28:15.159Z,28.47
2022-11-29T08:30:43.594Z,28.10
2022-11-29T08:33:13.254Z,30.00
2022-11-29T08:35:42.182Z,29.47
2022-11-29T08:38:10.514Z,28.63
2022-11-29T08:40:38.942Z,28.97
2022-11-29T08:43:07.201Z,27.90
2022-11-29T08:45:35.642Z,28.50
2022-11-29T08:48:04.660Z,27.80
2022-11-29T08:50:34.716Z,27.57
2022-11-29T08:53:20.716Z,28.90
2022-11-29T08:55:49.202Z,28.13
2022-11-29T08:58:18.318Z,28.17
2022-11-29T09:00:47.237Z,26.53
2022-11-29T09:03:33.662Z,27.50
2022-11-29T09:06:12.240Z,28.17
2022-11-29T09:08:43.517Z,28.03
2022-11-29T09:11:14.213Z,29.40
2022-11-29T09:13:44.334Z,28.83
2022-11-29T09:16:18.092Z,29.80
2022-11-29T09:18:51.962Z,27.37
2022-11-29T09:21:22.451Z,28.60
2022-11-29T09:23:57.746Z,29.33
2022-11-29T09:26:29.354Z,29.27
2022-11-29T09:29:01.363Z,29.47
2022-11-29T09:31:31.664Z,29.23
2022-11-29T09:34:00.466Z,29.17
2022-11-29T09:36:31.959Z,29.87
2022-11-29T09:39:03.644Z,28.77
2022-11-29T09:42:14.436Z,28.90
2022-11-29T09:45:02.437Z,28.97
2022-11-29T09:48:08.867Z,26.70
2022-11-29T09:50:43.176Z,26.67
2022-11-29T09:53:34.349Z,27.07
2022-11-29T09:56:19.681Z,26.60
2022-11-29T09:58:58.525Z,27.30
2022-11-29T10:01:33.258Z,27.53
2022-11-29T10:04:08.979Z,27.43
2022-11-29T10:06:45.117Z,27.33
2022-11-29T10:09:23.850Z,27.30
2022-11-29T10:12:04.868Z,27.83
2022-11-29T10:14:44.999Z,26.70
2022-11-29T10:17:27.271Z,26.87
2022-11-29T10:20:04.269Z,27.67
2022-11-29T10:22:44.859Z,27.80
2022-11-29T10:25:25.031Z,27.13
2022-11-29T10:27:55.028Z,27.33
2022-11-29T10:30:23.946Z,28.37
2022-11-29T10:33:01.422Z,26.83
2022-11-29T10:35:30.545Z,26.10
2022-11-29T10:38:29.898Z,27.27
2022-11-29T10:41:05.262Z,26.20
2022-11-29T10:43:34.138Z,26.30
2022-11-29T10:46:02.750Z,26.67
2022-11-29T10:48:35.319Z,25.43
2022-11-29T10:51:04.373Z,25.67
2022-11-29T10:53:37.936Z,26.47
2022-11-29T10:56:18.009Z,27.17
2022-11-29T10:58:58.497Z,25.33
2022-11-29T11:01:29.137Z,25.63
2022-11-29T11:04:00.143Z,26.90
2022-11-29T11:06:44.932Z,27.10
2022-11-29T11:09:21.908Z,25.23
2022-11-29T11:11:58.718Z,24.83
2022-11-29T11:14:30.672Z,25.00
2022-11-29T11:17:21.851Z,26.47
2022-11-29T11:19:59.242Z,24.50
2022-11-29T11:22:29.519Z,24.43
2022-11-29T11:25:01.948Z,26.23
2022-11-29T11:27:39.734Z,26.30
2022-11-29T11:30:23.992Z,25.17
2022-11-29T11:33:08.952Z,24.93
2022-11-29T11:35:54.058Z,25.37
2022-11-29T11:46:03.221Z,23.90
2022-11-29T11:48:35.023Z,25.17
2022-11-29T11:54:02.080Z,26.40
2022-11-29T11:56:36.957Z,27.20
2022-11-29T11:59:06.633Z,27.37
2022-11-29T12:01:41.060Z,26.60
2022-11-29T12:04:16.607Z,25.80
2022-11-29T12:06:52.337Z,25.80
2022-11-29T12:09:35.258Z,26.43
2022-11-29T12:12:16.895Z,23.70
2022-11-29T12:14:56.914Z,24.97
2022-11-29T12:17:38.072Z,24.30
2022-11-29T12:20:25.734Z,24.77
2022-11-29T12:23:20.750Z,24.47
2022-11-29T12:25:57.294Z,22.97
2022-11-29T12:28:32.922Z,22.67
2022-11-29T12:31:13.581Z,23.00
2022-11-29T12:33:54.088Z,23.93
2022-11-29T12:36:42.556Z,22.73
2022-11-29T12:39:45.651Z,21.90
2022-11-29T12:42:27.756Z,23.57
2022-11-29T12:45:05.399Z,23.30
2022-11-29T12:47:52.433Z,22.47
2022-11-29T12:50:51.411Z,22.37
2022-11-29T12:53:35.819Z,20.50
2022-11-29T12:56:16.137Z,22.73
2022-11-29T12:59:03.527Z,21.77
2022-11-29T13:01:51.346Z,21.57
2022-11-29T13:04:30.497Z,20.60
2022-11-29T13:07:13.078Z,20.43
2022-11-29T13:10:21.932Z,20.57
2022-11-29T13:12:55.251Z,20.30
2022-11-29T13:15:30.978Z,20.50
2022-11-29T13:18:08.956Z,21.03
2022-11-29T13:20:49.177Z,20.73
2022-11-29T13:23:46.123Z,19.80
2022-11-29T13:26:18.690Z,19.87
2022-11-29T13:28:47.775Z,19.30
2022-11-29T13:31:21.092Z,20.07
2022-11-29T13:34:02.344Z,20.83
2022-11-29T13:36:46.852Z,20.50
2022-11-29T13:39:44.281Z,19.93
2022-11-29T13:42:23.590Z,19.20
2022-11-29T13:45:05.108Z,19.93
2022-11-29T13:47:33.553Z,19.80
2022-11-29T13:50:04.155Z,21.93
2022-11-29T13:52:42.923Z,21.30
2022-11-29T13:55:31.282Z,21.17
2022-11-29T13:58:18.142Z,21.20
2022-11-29T14:00:53.278Z,20.93
2022-11-29T14:03:32.594Z,21.00
2022-11-29T14:06:15.310Z,20.43
2022-11-29T14:09:21.690Z,21.60
2022-11-29T14:12:02.835Z,19.93
2022-11-29T14:14:41.294Z,19.77
2022-11-29T14:17:49.534Z,19.87
2022-11-29T14:20:59.414Z,20.97
2022-11-29T14:23:41.655Z,20.17
2022-11-29T14:26:33.091Z,20.63
2022-11-29T14:29:38.383Z,20.53
2022-11-29T14:32:23.498Z,20.23
2022-11-29T14:35:00.710Z,19.27
2022-11-29T14:37:56.822Z,19.07
2022-11-29T14:40:35.460Z,19.93
2022-11-29T14:43:21.698Z,19.43
2022-11-29T14:46:26.100Z,19.53
2022-11-29T14:49:04.463Z,19.67
2022-11-29T14:51:35.495Z,19.97
2022-11-29T14:54:14.369Z,20.33
2022-11-29T14:56:45.486Z,18.80
2022-11-29T14:59:50.429Z,19.77
2022-11-29T15:02:35.132Z,19.47
2022-11-29T15:05:22.918Z,18.53
2022-11-29T15:08:02.860Z,19.97
2022-11-29T15:10:40.099Z,19.37
2022-11-29T15:13:15.116Z,18.50
2022-11-29T15:16:14.015Z,19.37
2022-11-29T15:19:13.646Z,19.20
2022-11-29T15:21:55.691Z,19.13
2022-11-29T15:24:28.265Z,18.23
2022-11-29T15:26:59.225Z,18.57
2022-11-29T15:29:32.664Z,18.33
2022-11-29T15:32:06.862Z,19.33
2022-11-29T15:34:45.291Z,17.87
2022-11-29T15:37:24.584Z,17.80
2022-11-29T15:40:04.482Z,19.27
2022-11-29T15:42:42.420Z,18.37
2022-11-29T15:45:32.825Z,18.47
2022-11-29T15:48:25.769Z,17.63
2022-11-29T15:51:10.230Z,19.23
2022-11-29T15:53:47.262Z,18.30
2022-11-29T15:56:20.727Z,18.70
2022-11-29T15:58:53.228Z,18.67
2022-11-29T16:01:23.061Z,17.77
2022-11-29T16:03:56.872Z,18.07
2022-11-29T16:06:35.994Z,17.60
2022-11-29T16:09:07.666Z,18.10
2022-11-29T16:11:39.145Z,18.50
2022-11-29T16:14:23.171Z,18.13
2022-11-29T16:16:55.504Z,18.43
2022-11-29T16:19:30.765Z,17.27
2022-11-29T16:22:24.933Z,17.43
2022-11-29T16:25:03.777Z,18.33
2022-11-29T16:27:34.905Z,17.83
2022-11-29T16:30:03.957Z,18.00
2022-11-29T16:32:35.708Z,18.57
2022-11-29T16:35:14.026Z,18.13
2022-11-29T16:37:46.890Z,18.93
2022-11-29T16:40:25.634Z,18.37
2022-11-29T16:43:20.421Z,18.33
2022-11-29T16:45:48.935Z,17.40
2022-11-29T16:48:31.785Z,18.07
2022-11-29T16:51:23.736Z,17.07
2022-11-29T16:53:55.876Z,16.77
2022-11-29T16:56:34.645Z,17.20
2022-11-29T16:59:24.597Z,16.77
2022-11-29T17:01:53.021Z,16.33
2022-11-29T17:04:24.848Z,16.63
2022-11-29T17:06:54.937Z,17.27
2022-11-29T17:09:27.838Z,16.20
2022-11-29T17:11:59.814Z,17.53
2022-11-29T17:14:29.458Z,17.10
2022-11-29T17:17:00.634Z,17.93
2022-11-29T17:19:31.992Z,17.90
2022-11-29T17:22:00.761Z,18.33
2022-11-29T17:24:32.110Z,17.60
2022-11-29T17:27:00.548Z,17.47
2022-11-29T17:29:29.046Z,18.57
2022-11-29T17:31:57.875Z,17.60
2022-11-29T17:34:27.728Z,18.47
2022-11-29T17:36:59.606Z,18.07
2022-11-29T17:39:32.231Z,17.77
2022-11-29T17:42:02.203Z,17.07
2022-11-29T17:44:35.891Z,17.97
2022-11-29T17:47:04.799Z,15.83
2022-11-29T17:49:33.631Z,15.63
2022-11-29T17:52:02.142Z,15.20
2022-11-29T17:54:33.202Z,15.83
2022-11-29T17:57:03.742Z,17.13
2022-11-29T17:59:32.111Z,16.83
2022-11-29T18:02:02.088Z,16.17
2022-11-29T18:04:30.525Z,14.83
2022-11-29T18:06:59.500Z,16.53
2022-11-29T18:09:28.253Z,16.47
2022-11-29T18:11:58.318Z,14.20
2022-11-29T18:14:28.448Z,16.47
2022-11-29T18:16:57.022Z,15.10
2022-11-29T18:19:25.436Z,13.20
2022-11-29T18:21:53.817Z,12.53
2022-11-29T18:24:22.144Z,15.13
2022-11-29T18:26:50.574Z,13.37
2022-11-29T18:29:20.599Z,15.20
2022-11-29T18:31:48.884Z,13.90
2022-11-29T18:34:17.332Z,14.40
2022-11-29T18:36:48.513Z,14.37
2022-11-29T18:39:19.188Z,15.10
2022-11-29T18:41:49.613Z,14.27
2022-11-29T18:44:21.969Z,16.13
2022-11-29T18:46:50.686Z,16.80
2022-11-29T18:49:19.685Z,16.27
2022-11-29T18:51:49.790Z,16.17
2022-11-29T18:54:19.915Z,15.60
2022-11-29T18:56:51.301Z,16.43
2022-11-29T18:59:23.015Z,17.53
2022-11-29T19:01:51.669Z,15.97
2022-11-29T19:04:24.089Z,16.80
2022-11-29T19:06:53.476Z,15.57
2022-11-29T19:09:23.964Z,16.10
2022-11-29T19:11:52.596Z,16.37
2022-11-29T19:14:23.214Z,16.27
2022-11-29T19:16:52.391Z,16.20
2022-11-29T19:19:23.931Z,17.97
2022-11-29T19:21:53.048Z,15.90
2022-11-29T19:24:22.729Z,17.50
2022-11-29T19:26:55.544Z,17.00
2022-11-29T19:29:28.568Z,17.97
2022-11-29T19:31:57.133Z,17.27
2022-11-29T19:34:26.490Z,17.57
2022-11-29T19:36:58.500Z,17.97
2022-11-29T19:39:31.332Z,17.57
2022-11-29T19:42:00.067Z,17.90
2022-11-29T19:44:35.905Z,16.13
2022-11-29T19:47:17.156Z,15.93
2022-11-29T19:49:46.849Z,17.80
2022-11-29T19:52:15.555Z,16.57
2022-11-29T19:54:44.168Z,16.30
2022-11-29T19:57:13.812Z,17.17
2022-11-29T19:59:44.265Z,16.83
2022-11-29T20:02:13.545Z,16.53
2022-11-29T20:04:45.731Z,16.07
2022-11-29T20:07:14.305Z,16.23
2022-11-29T20:09:43.531Z,15.63
2022-11-29T20:12:12.970Z,16.43
2022-11-29T20:14:41.441Z,16.03
2022-11-29T20:17:11.545Z,15.73
2022-11-29T20:19:40.139Z,16.93
2022-11-29T20:22:08.801Z,15.13
2022-11-29T20:24:42.632Z,16.30
2022-11-29T20:27:14.116Z,16.53
2022-11-29T20:29:42.672Z,15.20
2022-11-29T20:32:13.055Z,14.83
2022-11-29T20:34:42.669Z,15.63
2022-11-29T20:37:39.930Z,16.17
2022-11-29T20:40:19.092Z,14.77
2022-11-29T20:43:12.964Z,15.40
2022-11-29T20:45:42.355Z,15.60
2022-11-29T20:48:19.641Z,15.40
2022-11-29T20:51:00.334Z,15.50
2022-11-29T20:53:36.333Z,15.97
2022-11-29T20:56:08.116Z,14.27
2022-11-29T20:58:37.092Z,15.80
2022-11-29T21:01:07.547Z,15.93
2022-11-29T21:03:38.182Z,15.73
2022-11-29T21:06:08.621Z,15.37
2022-11-29T21:08:37.919Z,15.97
2022-11-29T21:11:09.218Z,15.73
2022-11-29T21:13:39.204Z,15.33
2022-11-29T21:16:12.598Z,15.17
2022-11-29T21:18:43.981Z,15.03
2022-11-29T21:21:25.939Z,14.20
2022-11-29T21:24:06.776Z,14.97
2022-11-29T21:26:42.186Z,15.33
2022-11-29T21:29:19.472Z,15.67
2022-11-29T21:31:50.984Z,15.47
2022-11-29T21:37:32.116Z,16.23
2022-11-29T21:40:00.648Z,17.17
2022-11-29T21:42:29.513Z,17.63
2022-11-29T21:44:57.968Z,18.40
2022-11-29T21:47:26.958Z,18.10
2022-11-29T21:49:57.635Z,17.37
2022-11-29T21:52:27.146Z,18.87
2022-11-29T21:54:56.409Z,19.37
2022-11-29T21:57:25.303Z,19.57
2022-11-29T21:59:54.009Z,21.67
2022-11-29T22:02:22.731Z,20.00
2022-11-29T22:04:51.547Z,19.27
2022-11-29T22:07:23.116Z,18.93
2022-11-29T22:09:55.467Z,19.93
2022-11-29T22:12:34.336Z,19.57
2022-11-29T22:15:04.347Z,19.53
2022-11-29T22:17:34.036Z,20.10
2022-11-29T22:20:03.516Z,19.33
2022-11-29T22:22:39.547Z,20.10
2022-11-29T22:25:09.655Z,20.03
2022-11-29T22:27:39.121Z,20.70
2022-11-29T22:30:12.137Z,20.90
2022-11-29T22:32:41.439Z,20.87
2022-11-29T22:35:10.932Z,21.03
2022-11-29T22:37:41.254Z,21.70
2022-11-29T22:40:10.887Z,20.70
2022-11-29T22:42:41.519Z,20.23
2022-11-29T22:45:11.513Z,20.50
2022-11-29T22:47:40.098Z,21.57
2022-11-29T22:50:10.196Z,21.67
2022-11-29T22:52:40.592Z,21.03
2022-11-29T22:55:10.349Z,20.73
2022-11-29T22:57:39.214Z,21.77
2022-11-29T23:00:10.087Z,22.33
2022-11-29T23:02:39.130Z,22.10
2022-11-29T23:05:08.682Z,24.07
2022-11-29T23:07:37.454Z,23.63
2022-11-29T23:10:09.405Z,23.83
2022-11-29T23:12:37.979Z,21.43
2022-11-29T23:15:08.035Z,22.70
2022-11-29T23:17:37.190Z,22.23
2022-11-29T23:20:07.844Z,22.93
2022-11-29T23:22:39.959Z,23.70
2022-11-29T23:25:10.851Z,24.50
2022-11-29T23:27:39.443Z,23.90
2022-11-29T23:30:10.151Z,23.13
2022-11-29T23:32:39.684Z,24.13
2022-11-29T23:35:09.902Z,24.10
2022-11-29T23:37:41.532Z,22.67
2022-11-29T23:40:13.240Z,22.63
2022-11-29T23:42:46.441Z,22.70
2022-11-29T23:45:15.963Z,21.70
2022-11-29T23:47:44.627Z,24.27
2022-11-29T23:50:19.007Z,24.63
2022-11-29T23:52:56.260Z,23.33
2022-11-29T23:55:31.055Z,23.50
2022-11-29T23:58:03.555Z,25.50
